sensor_id;sensor_type;location;lat;lon;timestamp;pressure;altitude;pressure_sealevel;temperature;humidity
8890;BME280;4481;43.406;24.454;2023-05-25T00:00:18;76348.91;;;-144.09;100.00
8890;BME280;4481;43.406;24.454;2023-05-25T00:02:45;76342.63;;;-144.09;100.00
8890;BME280;4481;43.406;24.454;2023-05-25T00:05:12;76355.16;;;-144.09;100.00
8890;BME280;4481;43.406;24.454;2023-05-25T00:07:38;76363.53;;;-144.09;100.00
8890;BME280;4481;43.406;24.454;2023-05-25T00:10:06;76357.25;;;-144.09;100.00
8890;BME280;4481;43.406;24.454;2023-05-25T00:12:33;76355.16;;;-144.09;100.00
8890;BME280;4481;43.406;24.454;2023-05-25T00:14:59;76365.63;;;-144.09;100.00
8890;BME280;4481;43.406;24.454;2023-05-25T00:17:26;76399.03;;;-144.09;100.00
8890;BME280;4481;43.406;24.454;2023-05-25T00:19:56;76403.22;;;-144.09;100.00
8890;BME280;4481;43.406;24.454;2023-05-25T00:22:23;76403.22;;;-144.09;100.00
8890;BME280;4481;43.406;24.454;2023-05-25T00:24:53;76392.78;;;-144.09;100.00
8890;BME280;4481;43.406;24.454;2023-05-25T00:27:19;76411.56;;;-144.09;100.00
8890;BME280;4481;43.406;24.454;2023-05-25T00:29:45;76413.66;;;-144.09;100.00
8890;BME280;4481;43.406;24.454;2023-05-25T00:32:12;76432.47;;;-144.09;100.00
8890;BME280;4481;43.406;24.454;2023-05-25T00:34:38;76430.38;;;-144.09;100.00
8890;BME280;4481;43.406;24.454;2023-05-25T00:37:05;76438.75;;;-144.09;100.00
8890;BME280;4481;43.406;24.454;2023-05-25T00:39:31;76440.84;;;-144.09;100.00
8890;BME280;4481;43.406;24.454;2023-05-25T00:41:57;76453.38;;;-144.09;100.00
8890;BME280;4481;43.406;24.454;2023-05-25T00:44:24;76461.72;;;-144.09;100.00
8890;BME280;4481;43.406;24.454;2023-05-25T00:46:50;76476.34;;;-144.09;100.00
8890;BME280;4481;43.406;24.454;2023-05-25T00:49:19;76455.47;;;-144.09;100.00
8890;BME280;4481;43.406;24.454;2023-05-25T00:51:46;76472.19;;;-144.09;100.00
8890;BME280;4481;43.406;24.454;2023-05-25T00:54:13;76480.53;;;-144.09;100.00
8890;BME280;4481;43.406;24.454;2023-05-25T00:56:39;76480.53;;;-144.09;100.00
8890;BME280;4481;43.406;24.454;2023-05-25T00:59:09;76493.06;;;-144.09;100.00
8890;BME280;4481;43.406;24.454;2023-05-25T01:01:39;76495.16;;;-144.09;100.00
8890;BME280;4481;43.406;24.454;2023-05-25T01:04:06;76518.16;;;-144.09;100.00
8890;BME280;4481;43.406;24.454;2023-05-25T01:06:35;76511.88;;;-144.09;100.00
8890;BME280;4481;43.406;24.454;2023-05-25T01:09:05;76511.88;;;-144.09;100.00
8890;BME280;4481;43.406;24.454;2023-05-25T01:11:36;76516.06;;;-144.09;100.00
8890;BME280;4481;43.406;24.454;2023-05-25T01:14:03;76524.41;;;-144.09;100.00
8890;BME280;4481;43.406;24.454;2023-05-25T01:16:30;76524.41;;;-144.09;100.00
8890;BME280;4481;43.406;24.454;2023-05-25T01:18:56;76532.78;;;-144.09;100.00
8890;BME280;4481;43.406;24.454;2023-05-25T01:21:26;76555.75;;;-144.09;100.00
8890;BME280;4481;43.406;24.454;2023-05-25T01:23:58;76553.66;;;-144.09;100.00
8890;BME280;4481;43.406;24.454;2023-05-25T01:26:28;76555.75;;;-144.09;100.00
8890;BME280;4481;43.406;24.454;2023-05-25T01:28:57;76545.31;;;-144.09;100.00
8890;BME280;4481;43.406;24.454;2023-05-25T01:31:24;76530.69;;;-144.09;100.00
8890;BME280;4481;43.406;24.454;2023-05-25T01:33:51;76520.22;;;-144.09;100.00
8890;BME280;4481;43.406;24.454;2023-05-25T01:36:18;76509.78;;;-144.09;100.00
8890;BME280;4481;43.406;24.454;2023-05-25T01:38:46;76493.06;;;-144.09;100.00
8890;BME280;4481;43.406;24.454;2023-05-25T01:41:12;76484.72;;;-144.09;100.00
8890;BME280;4481;43.406;24.454;2023-05-25T01:43:38;76488.88;;;-144.09;100.00
8890;BME280;4481;43.406;24.454;2023-05-25T01:46:20;76495.16;;;-144.09;100.00
8890;BME280;4481;43.406;24.454;2023-05-25T01:48:54;76493.06;;;-144.09;100.00
8890;BME280;4481;43.406;24.454;2023-05-25T01:51:29;76497.25;;;-144.09;100.00
8890;BME280;4481;43.406;24.454;2023-05-25T01:54:02;76486.81;;;-144.09;100.00
8890;BME280;4481;43.406;24.454;2023-05-25T01:56:32;76493.06;;;-144.09;100.00
8890;BME280;4481;43.406;24.454;2023-05-25T01:59:01;76484.72;;;-144.09;100.00
8890;BME280;4481;43.406;24.454;2023-05-25T02:01:29;76490.97;;;-144.09;100.00
8890;BME280;4481;43.406;24.454;2023-05-25T02:03:57;76503.53;;;-144.09;100.00
8890;BME280;4481;43.406;24.454;2023-05-25T02:06:23;76505.59;;;-144.09;100.00
8890;BME280;4481;43.406;24.454;2023-05-25T02:08:50;76488.88;;;-144.09;100.00
8890;BME280;4481;43.406;24.454;2023-05-25T02:11:17;76484.72;;;-144.09;100.00
8890;BME280;4481;43.406;24.454;2023-05-25T02:13:43;76484.72;;;-144.09;100.00
8890;BME280;4481;43.406;24.454;2023-05-25T02:16:09;76484.72;;;-144.09;100.00
8890;BME280;4481;43.406;24.454;2023-05-25T02:18:35;76474.25;;;-144.09;100.00
8890;BME280;4481;43.406;24.454;2023-05-25T02:21:02;76495.16;;;-144.09;100.00
8890;BME280;4481;43.406;24.454;2023-05-25T02:23:28;76501.44;;;-144.09;100.00
8890;BME280;4481;43.406;24.454;2023-05-25T02:25:55;76499.34;;;-144.09;100.00
8890;BME280;4481;43.406;24.454;2023-05-25T02:28:21;76507.69;;;-144.09;100.00
8890;BME280;4481;43.406;24.454;2023-05-25T02:30:47;76511.88;;;-144.09;100.00
8890;BME280;4481;43.406;24.454;2023-05-25T02:33:14;76509.78;;;-144.09;100.00
8890;BME280;4481;43.406;24.454;2023-05-25T02:35:40;76495.16;;;-144.09;100.00
8890;BME280;4481;43.406;24.454;2023-05-25T02:38:06;76499.34;;;-144.09;100.00
8890;BME280;4481;43.406;24.454;2023-05-25T02:40:32;76493.06;;;-144.09;100.00
8890;BME280;4481;43.406;24.454;2023-05-25T02:42:58;76503.53;;;-144.09;100.00
8890;BME280;4481;43.406;24.454;2023-05-25T02:45:25;76495.16;;;-144.09;100.00
8890;BME280;4481;43.406;24.454;2023-05-25T02:47:51;76497.25;;;-144.09;100.00
8890;BME280;4481;43.406;24.454;2023-05-25T02:50:17;76505.59;;;-144.09;100.00
8890;BME280;4481;43.406;24.454;2023-05-25T02:52:43;76509.78;;;-144.09;100.00
8890;BME280;4481;43.406;24.454;2023-05-25T02:55:10;76518.16;;;-144.09;100.00
8890;BME280;4481;43.406;24.454;2023-05-25T02:57:37;76518.16;;;-144.09;100.00
8890;BME280;4481;43.406;24.454;2023-05-25T03:00:05;76530.69;;;-144.09;100.00
8890;BME280;4481;43.406;24.454;2023-05-25T03:02:32;76528.59;;;-144.09;100.00
8890;BME280;4481;43.406;24.454;2023-05-25T03:04:59;76528.59;;;-144.09;100.00
8890;BME280;4481;43.406;24.454;2023-05-25T03:07:26;76524.41;;;-144.09;100.00
8890;BME280;4481;43.406;24.454;2023-05-25T03:09:52;76543.22;;;-144.09;100.00
8890;BME280;4481;43.406;24.454;2023-05-25T03:12:18;76524.41;;;-144.09;100.00
8890;BME280;4481;43.406;24.454;2023-05-25T03:14:44;76518.16;;;-144.09;100.00
8890;BME280;4481;43.406;24.454;2023-05-25T03:17:11;76509.78;;;-144.09;100.00
8890;BME280;4481;43.406;24.454;2023-05-25T03:19:37;76516.06;;;-144.09;100.00
8890;BME280;4481;43.406;24.454;2023-05-25T03:22:04;76511.88;;;-144.09;100.00
8890;BME280;4481;43.406;24.454;2023-05-25T03:24:30;76501.44;;;-144.09;100.00
8890;BME280;4481;43.406;24.454;2023-05-25T03:26:56;76516.06;;;-144.09;100.00
8890;BME280;4481;43.406;24.454;2023-05-25T03:29:22;76511.88;;;-144.09;100.00
8890;BME280;4481;43.406;24.454;2023-05-25T03:31:48;76509.78;;;-144.09;100.00
8890;BME280;4481;43.406;24.454;2023-05-25T03:34:14;76482.63;;;-144.09;100.00
8890;BME280;4481;43.406;24.454;2023-05-25T03:36:41;76470.09;;;-144.09;100.00
8890;BME280;4481;43.406;24.454;2023-05-25T03:39:10;76474.25;;;-144.09;100.00
8890;BME280;4481;43.406;24.454;2023-05-25T03:41:36;76476.34;;;-144.09;100.00
8890;BME280;4481;43.406;24.454;2023-05-25T03:44:03;76472.19;;;-144.09;100.00
8890;BME280;4481;43.406;24.454;2023-05-25T03:46:29;76484.72;;;-144.09;100.00
8890;BME280;4481;43.406;24.454;2023-05-25T03:48:55;76507.69;;;-144.09;100.00
8890;BME280;4481;43.406;24.454;2023-05-25T03:51:21;76499.34;;;-144.09;100.00
8890;BME280;4481;43.406;24.454;2023-05-25T03:53:48;76501.44;;;-144.09;100.00
8890;BME280;4481;43.406;24.454;2023-05-25T03:56:14;76509.78;;;-144.09;100.00
8890;BME280;4481;43.406;24.454;2023-05-25T03:58:40;76490.97;;;-144.09;100.00
8890;BME280;4481;43.406;24.454;2023-05-25T04:01:07;76484.72;;;-144.09;100.00
8890;BME280;4481;43.406;24.454;2023-05-25T04:03:34;76482.63;;;-144.09;100.00
8890;BME280;4481;43.406;24.454;2023-05-25T04:06:00;76495.16;;;-144.09;100.00
8890;BME280;4481;43.406;24.454;2023-05-25T04:08:27;76490.97;;;-144.09;100.00
8890;BME280;4481;43.406;24.454;2023-05-25T04:10:54;76476.34;;;-144.09;100.00
8890;BME280;4481;43.406;24.454;2023-05-25T04:13:21;76478.44;;;-144.09;100.00
8890;BME280;4481;43.406;24.454;2023-05-25T04:15:47;76476.34;;;-144.09;100.00
8890;BME280;4481;43.406;24.454;2023-05-25T04:18:14;76455.47;;;-144.09;100.00
8890;BME280;4481;43.406;24.454;2023-05-25T04:20:40;76472.19;;;-144.09;100.00
8890;BME280;4481;43.406;24.454;2023-05-25T04:23:06;76497.25;;;-144.09;100.00
8890;BME280;4481;43.406;24.454;2023-05-25T04:25:32;76513.97;;;-144.09;100.00
8890;BME280;4481;43.406;24.454;2023-05-25T04:27:59;76488.88;;;-144.09;100.00
8890;BME280;4481;43.406;24.454;2023-05-25T04:30:25;76476.34;;;-144.09;100.00
8890;BME280;4481;43.406;24.454;2023-05-25T04:32:53;76468.00;;;-144.09;100.00
8890;BME280;4481;43.406;24.454;2023-05-25T04:35:19;76461.72;;;-144.09;100.00
8890;BME280;4481;43.406;24.454;2023-05-25T04:37:45;76451.28;;;-144.09;100.00
8890;BME280;4481;43.406;24.454;2023-05-25T04:40:12;76455.47;;;-144.09;100.00
8890;BME280;4481;43.406;24.454;2023-05-25T04:42:39;76463.81;;;-144.09;100.00
8890;BME280;4481;43.406;24.454;2023-05-25T04:45:08;76468.00;;;-144.09;100.00
8890;BME280;4481;43.406;24.454;2023-05-25T04:47:34;76468.00;;;-144.09;100.00
8890;BME280;4481;43.406;24.454;2023-05-25T04:50:02;76463.81;;;-144.09;100.00
8890;BME280;4481;43.406;24.454;2023-05-25T04:52:28;76457.53;;;-144.09;100.00
8890;BME280;4481;43.406;24.454;2023-05-25T04:54:54;76472.19;;;-144.09;100.00
8890;BME280;4481;43.406;24.454;2023-05-25T04:57:21;76474.25;;;-144.09;100.00
8890;BME280;4481;43.406;24.454;2023-05-25T04:59:47;76465.91;;;-144.09;100.00
8890;BME280;4481;43.406;24.454;2023-05-25T05:02:14;76461.72;;;-144.09;100.00
8890;BME280;4481;43.406;24.454;2023-05-25T05:04:40;76465.91;;;-144.09;100.00
8890;BME280;4481;43.406;24.454;2023-05-25T05:07:06;76488.88;;;-144.09;100.00
8890;BME280;4481;43.406;24.454;2023-05-25T05:09:33;76478.44;;;-144.09;100.00
8890;BME280;4481;43.406;24.454;2023-05-25T05:11:59;76480.53;;;-144.09;100.00
8890;BME280;4481;43.406;24.454;2023-05-25T05:14:27;76472.19;;;-144.09;100.00
8890;BME280;4481;43.406;24.454;2023-05-25T05:16:54;76451.28;;;-144.09;100.00
8890;BME280;4481;43.406;24.454;2023-05-25T05:19:20;76428.28;;;-144.09;100.00
8890;BME280;4481;43.406;24.454;2023-05-25T05:21:47;76417.84;;;-144.09;100.00
8890;BME280;4481;43.406;24.454;2023-05-25T05:24:14;76417.84;;;-144.09;100.00
8890;BME280;4481;43.406;24.454;2023-05-25T05:26:40;76401.13;;;-144.09;100.00
8890;BME280;4481;43.406;24.454;2023-05-25T05:29:06;76388.59;;;-144.09;100.00
8890;BME280;4481;43.406;24.454;2023-05-25T05:31:33;76405.31;;;-144.09;100.00
8890;BME280;4481;43.406;24.454;2023-05-25T05:34:01;76396.94;;;-144.09;100.00
8890;BME280;4481;43.406;24.454;2023-05-25T05:36:27;76367.69;;;-144.09;100.00
8890;BME280;4481;43.406;24.454;2023-05-25T05:38:54;76357.25;;;-144.09;100.00
8890;BME280;4481;43.406;24.454;2023-05-25T05:41:20;76348.91;;;-144.09;100.00
8890;BME280;4481;43.406;24.454;2023-05-25T05:43:47;76342.63;;;-144.09;100.00
8890;BME280;4481;43.406;24.454;2023-05-25T05:46:14;76334.28;;;-144.09;100.00
8890;BME280;4481;43.406;24.454;2023-05-25T05:48:40;76319.66;;;-144.09;100.00
8890;BME280;4481;43.406;24.454;2023-05-25T05:51:06;76300.84;;;-144.09;100.00
8890;BME280;4481;43.406;24.454;2023-05-25T05:53:33;76305.03;;;-144.09;100.00
8890;BME280;4481;43.406;24.454;2023-05-25T05:56:00;76288.31;;;-144.09;100.00
8890;BME280;4481;43.406;24.454;2023-05-25T05:58:26;76259.06;;;-144.09;100.00
8890;BME280;4481;43.406;24.454;2023-05-25T06:00:52;76248.59;;;-144.09;100.00
8890;BME280;4481;43.406;24.454;2023-05-25T06:03:19;76227.72;;;-144.09;100.00
8890;BME280;4481;43.406;24.454;2023-05-25T06:05:45;76208.91;;;-144.09;100.00
8890;BME280;4481;43.406;24.454;2023-05-25T06:08:11;76208.91;;;-144.09;100.00
8890;BME280;4481;43.406;24.454;2023-05-25T06:10:39;76192.19;;;-144.09;100.00
8890;BME280;4481;43.406;24.454;2023-05-25T06:13:06;76181.75;;;-144.09;100.00
8890;BME280;4481;43.406;24.454;2023-05-25T06:15:32;76173.38;;;-144.09;100.00
8890;BME280;4481;43.406;24.454;2023-05-25T06:17:58;76171.31;;;-144.09;100.00
8890;BME280;4481;43.406;24.454;2023-05-25T06:20:25;76175.47;;;-144.09;100.00
8890;BME280;4481;43.406;24.454;2023-05-25T06:22:51;76156.69;;;-144.09;100.00
8890;BME280;4481;43.406;24.454;2023-05-25T06:25:18;76129.50;;;-144.09;100.00
8890;BME280;4481;43.406;24.454;2023-05-25T06:27:45;76114.88;;;-144.09;100.00
8890;BME280;4481;43.406;24.454;2023-05-25T06:30:11;76121.16;;;-144.09;100.00
8890;BME280;4481;43.406;24.454;2023-05-25T06:32:38;76104.44;;;-144.09;100.00
8890;BME280;4481;43.406;24.454;2023-05-25T06:35:04;76148.31;;;-144.09;100.00
8890;BME280;4481;43.406;24.454;2023-05-25T06:37:31;76173.38;;;-144.09;100.00
8890;BME280;4481;43.406;24.454;2023-05-25T06:39:59;76160.84;;;-144.09;100.00
8890;BME280;4481;43.406;24.454;2023-05-25T06:42:26;76175.47;;;-144.09;100.00
8890;BME280;4481;43.406;24.454;2023-05-25T06:44:53;76158.75;;;-144.09;100.00
8890;BME280;4481;43.406;24.454;2023-05-25T06:47:19;76152.50;;;-144.09;100.00
8890;BME280;4481;43.406;24.454;2023-05-25T06:49:45;76135.78;;;-144.09;100.00
8890;BME280;4481;43.406;24.454;2023-05-25T06:52:11;76139.97;;;-144.09;100.00
8890;BME280;4481;43.406;24.454;2023-05-25T06:54:37;76116.97;;;-144.09;100.00
8890;BME280;4481;43.406;24.454;2023-05-25T06:57:04;76096.09;;;-144.09;100.00
8890;BME280;4481;43.406;24.454;2023-05-25T06:59:30;76085.63;;;-144.09;100.00
8890;BME280;4481;43.406;24.454;2023-05-25T07:01:58;76068.94;;;-144.09;100.00
8890;BME280;4481;43.406;24.454;2023-05-25T07:04:25;76048.03;;;-144.09;100.00
8890;BME280;4481;43.406;24.454;2023-05-25T07:06:51;76029.22;;;-144.09;100.00
8890;BME280;4481;43.406;24.454;2023-05-25T07:09:17;75989.53;;;-144.09;100.00
8890;BME280;4481;43.406;24.454;2023-05-25T07:11:44;75997.88;;;-144.09;100.00
8890;BME280;4481;43.406;24.454;2023-05-25T07:14:10;75968.63;;;-144.09;100.00
8890;BME280;4481;43.406;24.454;2023-05-25T07:16:36;75922.69;;;-144.09;100.00
8890;BME280;4481;43.406;24.454;2023-05-25T07:19:03;75878.81;;;-144.09;100.00
8890;BME280;4481;43.406;24.454;2023-05-25T07:21:30;75889.25;;;-144.09;100.00
8890;BME280;4481;43.406;24.454;2023-05-25T07:23:57;75855.81;;;-144.09;100.00
8890;BME280;4481;43.406;24.454;2023-05-25T07:26:23;75853.72;;;-144.09;100.00
8890;BME280;4481;43.406;24.454;2023-05-25T07:28:51;75814.03;;;-144.09;100.00
8890;BME280;4481;43.406;24.454;2023-05-25T07:31:17;75782.72;;;-144.09;100.00
8890;BME280;4481;43.406;24.454;2023-05-25T07:33:44;75743.00;;;-144.09;100.00
8890;BME280;4481;43.406;24.454;2023-05-25T07:36:11;75711.69;;;-144.09;99.50
8890;BME280;4481;43.406;24.454;2023-05-25T07:38:37;75688.69;;;-144.09;98.88
8890;BME280;4481;43.406;24.454;2023-05-25T07:41:03;75655.28;;;-144.09;99.53
8890;BME280;4481;43.406;24.454;2023-05-25T07:43:29;75623.94;;;-144.09;96.77
8890;BME280;4481;43.406;24.454;2023-05-25T07:45:56;75644.84;;;-144.09;97.04
8890;BME280;4481;43.406;24.454;2023-05-25T07:48:22;75655.28;;;-144.09;97.75
8890;BME280;4481;43.406;24.454;2023-05-25T07:50:48;75615.59;;;-144.09;97.27
8890;BME280;4481;43.406;24.454;2023-05-25T07:53:15;75561.28;;;-144.09;95.93
8890;BME280;4481;43.406;24.454;2023-05-25T07:55:41;75519.50;;;-144.09;96.51
8890;BME280;4481;43.406;24.454;2023-05-25T07:58:07;75502.78;;;-144.09;95.68
8890;BME280;4481;43.406;24.454;2023-05-25T08:00:33;75521.59;;;-144.09;96.49
8890;BME280;4481;43.406;24.454;2023-05-25T08:02:59;75517.41;;;-144.09;95.31
8890;BME280;4481;43.406;24.454;2023-05-25T08:05:26;75481.88;;;-144.09;95.12
8890;BME280;4481;43.406;24.454;2023-05-25T08:07:53;75513.22;;;-144.09;94.01
8890;BME280;4481;43.406;24.454;2023-05-25T08:10:20;75527.84;;;-144.09;96.73
8890;BME280;4481;43.406;24.454;2023-05-25T08:12:46;75511.13;;;-144.09;95.89
8890;BME280;4481;43.406;24.454;2023-05-25T08:15:12;75490.25;;;-144.09;96.90
8890;BME280;4481;43.406;24.454;2023-05-25T08:17:38;75490.25;;;-144.09;95.11
8890;BME280;4481;43.406;24.454;2023-05-25T08:20:07;75492.34;;;-144.09;93.93
8890;BME280;4481;43.406;24.454;2023-05-25T08:22:33;75440.13;;;-144.09;93.86
8890;BME280;4481;43.406;24.454;2023-05-25T08:24:59;75435.94;;;-144.09;93.30
8890;BME280;4481;43.406;24.454;2023-05-25T08:27:26;75494.44;;;-144.09;93.70
8890;BME280;4481;43.406;24.454;2023-05-25T08:29:52;75502.78;;;-144.09;94.91
8890;BME280;4481;43.406;24.454;2023-05-25T08:32:18;75479.81;;;-144.09;94.83
8890;BME280;4481;43.406;24.454;2023-05-25T08:34:45;75458.91;;;-144.09;93.97
8890;BME280;4481;43.406;24.454;2023-05-25T08:37:11;75431.75;;;-144.09;93.58
8890;BME280;4481;43.406;24.454;2023-05-25T08:39:37;75458.91;;;-144.09;93.34
8890;BME280;4481;43.406;24.454;2023-05-25T08:42:04;75440.13;;;-144.09;91.83
8890;BME280;4481;43.406;24.454;2023-05-25T08:44:34;75452.66;;;-144.09;93.17
8890;BME280;4481;43.406;24.454;2023-05-25T08:47:04;75444.28;;;-144.09;92.09
8890;BME280;4481;43.406;24.454;2023-05-25T08:49:33;75475.63;;;-144.09;90.32
8890;BME280;4481;43.406;24.454;2023-05-25T08:52:00;75481.88;;;-144.09;92.25
8890;BME280;4481;43.406;24.454;2023-05-25T08:54:29;75517.41;;;-144.09;93.50
8890;BME280;4481;43.406;24.454;2023-05-25T08:57:00;75548.75;;;-144.09;93.19
8890;BME280;4481;43.406;24.454;2023-05-25T08:59:33;75546.66;;;-144.09;93.69
8890;BME280;4481;43.406;24.454;2023-05-25T09:02:10;75542.47;;;-144.09;93.19
8890;BME280;4481;43.406;24.454;2023-05-25T09:04:39;75483.97;;;-144.09;93.62
8890;BME280;4481;43.406;24.454;2023-05-25T09:07:06;75513.22;;;-144.09;93.70
8890;BME280;4481;43.406;24.454;2023-05-25T09:09:32;75506.97;;;-144.09;94.01
8890;BME280;4481;43.406;24.454;2023-05-25T09:12:02;75509.03;;;-144.09;94.38
8890;BME280;4481;43.406;24.454;2023-05-25T09:14:29;75486.06;;;-144.09;93.46
8890;BME280;4481;43.406;24.454;2023-05-25T09:16:57;75509.03;;;-144.09;94.29
8890;BME280;4481;43.406;24.454;2023-05-25T09:19:24;75475.63;;;-144.09;93.31
8890;BME280;4481;43.406;24.454;2023-05-25T09:21:50;75477.72;;;-144.09;91.24
8890;BME280;4481;43.406;24.454;2023-05-25T09:24:16;75473.53;;;-144.09;91.91
8890;BME280;4481;43.406;24.454;2023-05-25T09:26:43;75490.25;;;-144.09;89.82
8890;BME280;4481;43.406;24.454;2023-05-25T09:29:12;75463.09;;;-144.09;91.51
8890;BME280;4481;43.406;24.454;2023-05-25T09:31:38;75467.28;;;-144.09;88.97
8890;BME280;4481;43.406;24.454;2023-05-25T09:34:10;75461.00;;;-144.09;89.56
8890;BME280;4481;43.406;24.454;2023-05-25T09:36:37;75450.56;;;-144.09;90.37
8890;BME280;4481;43.406;24.454;2023-05-25T09:39:07;75471.44;;;-144.09;89.34
8890;BME280;4481;43.406;24.454;2023-05-25T09:41:33;75475.63;;;-144.09;89.57
8890;BME280;4481;43.406;24.454;2023-05-25T09:44:00;75481.88;;;-144.09;90.57
8890;BME280;4481;43.406;24.454;2023-05-25T09:46:26;75469.34;;;-144.09;91.58
8890;BME280;4481;43.406;24.454;2023-05-25T09:48:53;75467.28;;;-144.09;89.40
8890;BME280;4481;43.406;24.454;2023-05-25T09:51:20;75498.59;;;-144.09;88.44
8890;BME280;4481;43.406;24.454;2023-05-25T09:53:47;75475.63;;;-144.09;87.26
8890;BME280;4481;43.406;24.454;2023-05-25T09:56:13;75492.34;;;-144.09;88.59
8890;BME280;4481;43.406;24.454;2023-05-25T09:58:40;75479.81;;;-144.09;87.86
8890;BME280;4481;43.406;24.454;2023-05-25T10:01:06;75471.44;;;-144.09;88.39
8890;BME280;4481;43.406;24.454;2023-05-25T10:03:32;75467.28;;;-144.09;88.72
8890;BME280;4481;43.406;24.454;2023-05-25T10:06:00;75454.75;;;-144.09;87.18
8890;BME280;4481;43.406;24.454;2023-05-25T10:08:26;75440.13;;;-144.09;86.85
8890;BME280;4481;43.406;24.454;2023-05-25T10:10:54;75423.41;;;-144.09;81.86
8890;BME280;4481;43.406;24.454;2023-05-25T10:13:21;75425.50;;;-144.09;67.61
8890;BME280;4481;43.406;24.454;2023-05-25T10:15:50;75433.84;;;-144.09;71.17
8890;BME280;4481;43.406;24.454;2023-05-25T10:18:20;75419.22;;;-144.09;69.82
8890;BME280;4481;43.406;24.454;2023-05-25T10:20:51;75404.59;;;-144.09;72.44
8890;BME280;4481;43.406;24.454;2023-05-25T10:23:22;75387.88;;;-144.09;66.98
8890;BME280;4481;43.406;24.454;2023-05-25T10:25:52;75356.56;;;-144.09;68.65
8890;BME280;4481;43.406;24.454;2023-05-25T10:28:27;75321.06;;;-144.09;69.67
8890;BME280;4481;43.406;24.454;2023-05-25T10:30:54;75314.78;;;-144.09;68.05
8890;BME280;4481;43.406;24.454;2023-05-25T10:33:21;75329.41;;;-144.09;69.74
8890;BME280;4481;43.406;24.454;2023-05-25T10:35:48;75312.69;;;-144.09;72.19
8890;BME280;4481;43.406;24.454;2023-05-25T10:38:16;75346.13;;;-144.09;71.84
8890;BME280;4481;43.406;24.454;2023-05-25T10:40:44;75321.06;;;-144.09;68.00
8890;BME280;4481;43.406;24.454;2023-05-25T10:43:13;75287.63;;;-144.09;67.80
8890;BME280;4481;43.406;24.454;2023-05-25T10:45:41;75285.53;;;-144.09;69.26
8890;BME280;4481;43.406;24.454;2023-05-25T10:48:07;75273.00;;;-144.09;68.83
8890;BME280;4481;43.406;24.454;2023-05-25T10:50:34;75283.44;;;-144.09;70.99
8890;BME280;4481;43.406;24.454;2023-05-25T10:53:02;75275.09;;;-144.09;67.90
8890;BME280;4481;43.406;24.454;2023-05-25T10:55:41;75233.31;;;-144.09;68.29
8890;BME280;4481;43.406;24.454;2023-05-25T10:58:08;75191.53;;;-144.09;68.10
8890;BME280;4481;43.406;24.454;2023-05-25T11:00:34;75183.19;;;-144.09;68.40
8890;BME280;4481;43.406;24.454;2023-05-25T11:03:01;75158.13;;;-144.09;67.24
8890;BME280;4481;43.406;24.454;2023-05-25T11:05:32;75172.75;;;-144.09;65.50
8890;BME280;4481;43.406;24.454;2023-05-25T11:08:00;75147.69;;;-144.09;66.41
8890;BME280;4481;43.406;24.454;2023-05-25T11:10:43;75164.41;;;-144.09;67.93
8890;BME280;4481;43.406;24.454;2023-05-25T11:13:33;75185.28;;;-144.09;66.76
8890;BME280;4481;43.406;24.454;2023-05-25T11:16:16;75172.75;;;-144.09;66.63
8890;BME280;4481;43.406;24.454;2023-05-25T11:18:44;75135.16;;;-144.09;66.53
8890;BME280;4481;43.406;24.454;2023-05-25T11:21:12;75162.31;;;-144.09;65.50
8890;BME280;4481;43.406;24.454;2023-05-25T11:23:51;75133.06;;;-144.09;65.45
8890;BME280;4481;43.406;24.454;2023-05-25T11:26:19;75143.50;;;-144.09;63.45
8890;BME280;4481;43.406;24.454;2023-05-25T11:28:46;75139.31;;;-144.09;65.14
8890;BME280;4481;43.406;24.454;2023-05-25T11:31:13;75118.44;;;-144.09;64.03
8890;BME280;4481;43.406;24.454;2023-05-25T11:33:39;75133.06;;;-144.09;65.58
8890;BME280;4481;43.406;24.454;2023-05-25T11:36:10;75145.59;;;-144.09;65.23
8890;BME280;4481;43.406;24.454;2023-05-25T11:38:40;75162.31;;;-144.09;67.28
8890;BME280;4481;43.406;24.454;2023-05-25T11:41:15;75160.22;;;-144.09;66.84
8890;BME280;4481;43.406;24.454;2023-05-25T11:43:44;75143.50;;;-144.09;65.98
8890;BME280;4481;43.406;24.454;2023-05-25T11:46:10;75110.09;;;-144.09;64.44
8890;BME280;4481;43.406;24.454;2023-05-25T11:48:41;75116.34;;;-144.09;64.02
8890;BME280;4481;43.406;24.454;2023-05-25T11:51:08;75139.31;;;-144.09;64.73
8890;BME280;4481;43.406;24.454;2023-05-25T11:53:40;75199.91;;;-144.09;67.46
8890;BME280;4481;43.406;24.454;2023-05-25T11:56:06;75235.41;;;-144.09;70.45
8890;BME280;4481;43.406;24.454;2023-05-25T11:58:33;75185.28;;;-144.09;70.48
8890;BME280;4481;43.406;24.454;2023-05-25T12:01:11;75174.84;;;-144.09;69.19
8890;BME280;4481;43.406;24.454;2023-05-25T12:03:38;75145.59;;;-144.09;68.31
8890;BME280;4481;43.406;24.454;2023-05-25T12:06:04;75164.41;;;-144.09;68.70
8890;BME280;4481;43.406;24.454;2023-05-25T12:08:31;75214.53;;;-144.09;68.87
8890;BME280;4481;43.406;24.454;2023-05-25T12:10:58;75204.06;;;-144.09;68.65
8890;BME280;4481;43.406;24.454;2023-05-25T12:13:24;75202.00;;;-144.09;68.88
8890;BME280;4481;43.406;24.454;2023-05-25T12:15:54;75218.69;;;-144.09;68.15
8890;BME280;4481;43.406;24.454;2023-05-25T12:18:22;75229.16;;;-144.09;68.82
8890;BME280;4481;43.406;24.454;2023-05-25T12:20:48;75216.63;;;-144.09;69.12
8890;BME280;4481;43.406;24.454;2023-05-25T12:23:15;75239.59;;;-144.09;69.59
8890;BME280;4481;43.406;24.454;2023-05-25T12:25:42;75247.94;;;-144.09;68.98
8890;BME280;4481;43.406;24.454;2023-05-25T12:28:09;75279.28;;;-144.09;70.13
8890;BME280;4481;43.406;24.454;2023-05-25T12:30:35;75281.38;;;-144.09;69.64
8890;BME280;4481;43.406;24.454;2023-05-25T12:33:01;75256.28;;;-144.09;68.86
8890;BME280;4481;43.406;24.454;2023-05-25T12:35:27;75279.28;;;-144.09;71.00
8890;BME280;4481;43.406;24.454;2023-05-25T12:38:08;75268.84;;;-144.09;69.28
8890;BME280;4481;43.406;24.454;2023-05-25T12:40:34;75283.44;;;-144.09;70.25
8890;BME280;4481;43.406;24.454;2023-05-25T12:43:01;75256.28;;;-144.09;70.43